createdAt,value
2019-03-05T00:00:05.767Z,84.40
2019-03-05T00:02:33.239Z,84.90
2019-03-05T00:05:00.944Z,84.91
2019-03-05T00:07:28.405Z,83.94
2019-03-05T00:09:56.250Z,84.68
2019-03-05T00:12:23.698Z,83.63
2019-03-05T00:14:51.602Z,83.45
2019-03-05T00:17:19.178Z,84.96
2019-03-05T00:19:46.658Z,85.65
2019-03-05T00:22:14.101Z,85.66
2019-03-05T00:25:07.061Z,84.07
2019-03-05T00:28:02.683Z,83.91
2019-03-05T00:30:52.722Z,83.85
2019-03-05T00:33:32.829Z,84.46
2019-03-05T00:36:36.355Z,85.19
2019-03-05T00:39:37.678Z,85.69
2019-03-05T00:42:42.507Z,85.80
2019-03-05T00:46:05.283Z,85.31
2019-03-05T00:49:06.290Z,86.21
2019-03-05T00:52:10.398Z,86.03
2019-03-05T00:55:15.621Z,85.78
2019-03-05T00:58:08.575Z,86.79
2019-03-05T01:01:02.628Z,87.55
2019-03-05T01:04:16.495Z,86.95
2019-03-05T01:06:43.931Z,86.84
2019-03-05T01:09:14.432Z,86.84
2019-03-05T01:11:42.271Z,86.30
2019-03-05T01:14:10.652Z,85.77
2019-03-05T01:16:38.338Z,86.79
2019-03-05T01:19:05.937Z,87.74
2019-03-05T01:21:33.390Z,87.41
2019-03-05T01:24:00.950Z,86.43
2019-03-05T01:26:28.476Z,86.74
2019-03-05T01:28:55.919Z,86.52
2019-03-05T01:31:51.628Z,86.74
2019-03-05T01:34:36.399Z,86.78
2019-03-05T01:37:06.134Z,87.41
2019-03-05T01:39:39.048Z,86.52
2019-03-05T01:42:07.861Z,86.54
2019-03-05T01:44:35.370Z,86.71
2019-03-05T01:47:02.961Z,87.19
2019-03-05T01:49:30.498Z,86.60
2019-03-05T01:51:57.958Z,87.54
2019-03-05T01:54:25.458Z,87.39
2019-03-05T01:56:52.901Z,87.79
2019-03-05T01:59:20.345Z,87.34
2019-03-05T02:01:47.860Z,87.22
2019-03-05T02:04:15.302Z,86.34
2019-03-05T02:06:42.898Z,86.04
2019-03-05T02:09:10.628Z,86.81
2019-03-05T02:11:38.183Z,86.61
2019-03-05T02:14:05.718Z,86.31
2019-03-05T02:16:33.338Z,85.51
2019-03-05T02:19:47.646Z,85.93
2019-03-05T02:22:40.078Z,85.75
2019-03-05T02:25:29.470Z,85.87
2019-03-05T02:28:23.457Z,85.81
2019-03-05T02:31:15.579Z,85.68
2019-03-05T02:34:05.427Z,86.42
2019-03-05T02:36:59.211Z,85.62
2019-03-05T02:39:50.898Z,85.79
2019-03-05T02:43:00.385Z,87.47
2019-03-05T02:45:48.848Z,87.62
2019-03-05T02:48:34.228Z,86.55
2019-03-05T02:51:43.109Z,86.15
2019-03-05T02:54:44.583Z,86.45
2019-03-05T02:57:11.185Z,85.72
2019-03-05T02:59:41.184Z,86.79
2019-03-05T03:02:28.129Z,86.55
2019-03-05T03:05:30.426Z,87.49
2019-03-05T03:07:58.039Z,87.47
2019-03-05T03:10:25.607Z,87.60
2019-03-05T03:12:54.079Z,87.70
2019-03-05T03:15:21.600Z,87.80
2019-03-05T03:17:49.564Z,87.29
2019-03-05T03:20:18.375Z,86.34
2019-03-05T03:22:45.920Z,85.88
2019-03-05T03:25:15.619Z,86.44
2019-03-05T03:27:43.247Z,87.38
2019-03-05T03:30:12.918Z,88.52
2019-03-05T03:32:40.350Z,88.78
2019-03-05T03:35:08.942Z,88.68
2019-03-05T03:37:36.640Z,89.40
2019-03-05T03:40:06.221Z,89.60
2019-03-05T03:42:33.859Z,89.43
2019-03-05T03:45:01.405Z,88.67
2019-03-05T03:47:28.878Z,88.34
2019-03-05T03:49:56.339Z,87.62
2019-03-05T03:52:23.839Z,86.69
2019-03-05T03:54:51.278Z,86.88
2019-03-05T03:57:19.259Z,87.93
2019-03-05T03:59:47.738Z,88.23
2019-03-05T04:02:15.172Z,87.88
2019-03-05T04:04:42.641Z,87.20
2019-03-05T04:07:10.238Z,87.18
2019-03-05T04:09:37.708Z,87.06
2019-03-05T04:12:05.162Z,86.82
2019-03-05T04:14:32.600Z,86.62
2019-03-05T04:17:00.065Z,86.53
2019-03-05T04:19:30.556Z,86.13
2019-03-05T04:21:59.340Z,85.86
2019-03-05T04:24:26.775Z,85.44
2019-03-05T04:26:54.220Z,85.47
2019-03-05T04:29:21.745Z,85.58
2019-03-05T04:31:49.578Z,85.46
2019-03-05T04:34:17.049Z,85.12
2019-03-05T04:36:44.484Z,85.95
2019-03-05T04:39:11.929Z,86.88
2019-03-05T04:41:39.658Z,86.46
2019-03-05T04:44:07.138Z,85.63
2019-03-05T04:46:46.438Z,85.00
2019-03-05T04:49:39.428Z,86.44
2019-03-05T04:52:11.022Z,86.22
2019-03-05T04:54:39.918Z,87.00
2019-03-05T04:57:07.418Z,86.42
2019-03-05T04:59:35.041Z,86.58
2019-03-05T05:02:02.545Z,85.87
2019-03-05T05:04:29.982Z,85.41
2019-03-05T05:06:57.772Z,85.59
2019-03-05T05:09:25.224Z,86.47
2019-03-05T05:11:52.659Z,85.62
2019-03-05T05:14:20.162Z,86.28
2019-03-05T05:16:47.658Z,86.71
2019-03-05T05:19:16.538Z,86.77
2019-03-05T05:21:43.962Z,86.87
2019-03-05T05:24:11.460Z,88.28
2019-03-05T05:26:38.872Z,87.88
2019-03-05T05:29:06.409Z,87.13
2019-03-05T05:31:36.055Z,87.50
2019-03-05T05:34:03.489Z,87.21
2019-03-05T05:36:30.947Z,86.57
2019-03-05T05:38:58.439Z,87.16
2019-03-05T05:41:25.907Z,87.88
2019-03-05T05:43:53.361Z,86.69
2019-03-05T05:46:20.922Z,85.96
2019-03-05T05:48:48.405Z,86.81
2019-03-05T05:51:15.857Z,87.56
2019-03-05T05:53:43.566Z,87.51
2019-03-05T05:56:11.075Z,87.61
2019-03-05T05:58:38.572Z,87.59
2019-03-05T06:01:09.558Z,86.75
2019-03-05T06:03:38.000Z,86.38
2019-03-05T06:06:05.919Z,86.30
2019-03-05T06:08:33.346Z,85.84
2019-03-05T06:11:00.876Z,85.69
2019-03-05T06:13:28.439Z,85.81
2019-03-05T06:15:55.933Z,85.88
2019-03-05T06:18:23.388Z,86.94
2019-03-05T06:20:50.938Z,87.81
2019-03-05T06:23:18.454Z,87.53
2019-03-05T06:25:46.094Z,88.33
2019-03-05T06:28:13.665Z,87.98
2019-03-05T06:30:41.142Z,88.59
2019-03-05T06:33:08.607Z,88.69
2019-03-05T06:35:36.218Z,87.95
2019-03-05T06:38:04.066Z,87.47
2019-03-05T06:40:31.744Z,88.29
2019-03-05T06:42:59.344Z,87.96
2019-03-05T06:45:27.001Z,87.36
2019-03-05T06:47:54.537Z,87.26
2019-03-05T06:50:22.084Z,86.91
2019-03-05T06:52:49.771Z,87.37
2019-03-05T06:55:17.386Z,87.82
2019-03-05T06:57:44.899Z,87.71
2019-03-05T07:00:34.327Z,87.38
2019-03-05T07:03:01.900Z,87.08
2019-03-05T07:06:06.112Z,86.47
2019-03-05T07:08:35.037Z,86.50
2019-03-05T07:11:25.707Z,86.35
2019-03-05T07:13:54.074Z,86.31
2019-03-05T07:16:32.817Z,86.79
2019-03-05T07:19:10.511Z,86.03
2019-03-05T07:22:08.854Z,85.42
2019-03-05T07:24:43.959Z,86.15
2019-03-05T07:27:12.504Z,86.04
2019-03-05T07:29:41.326Z,85.51
2019-03-05T07:32:09.204Z,84.78
2019-03-05T07:34:38.749Z,84.45
2019-03-05T07:37:07.229Z,84.17
2019-03-05T07:39:35.259Z,83.21
2019-03-05T07:42:02.987Z,84.02
2019-03-05T07:44:30.560Z,83.66
2019-03-05T07:46:58.295Z,83.45
2019-03-05T07:49:25.844Z,84.03
2019-03-05T07:51:53.396Z,82.77
2019-03-05T07:54:21.065Z,81.97
2019-03-05T07:56:48.710Z,82.72
2019-03-05T07:59:16.288Z,83.66
2019-03-05T08:01:43.946Z,84.53
2019-03-05T08:04:11.480Z,84.93
2019-03-05T08:06:39.147Z,85.21
2019-03-05T08:09:34.937Z,85.12
2019-03-05T08:12:46.147Z,84.25
2019-03-05T08:15:21.655Z,83.48
2019-03-05T08:17:49.277Z,84.27
2019-03-05T08:20:16.733Z,85.25
2019-03-05T08:22:44.329Z,84.13
2019-03-05T08:25:12.849Z,83.46
2019-03-05T08:27:40.528Z,83.77
2019-03-05T08:30:14.516Z,83.26
2019-03-05T08:32:40.414Z,84.24
2019-03-05T08:35:09.234Z,84.61
2019-03-05T08:37:36.779Z,84.35
2019-03-05T08:40:04.583Z,81.51
2019-03-05T08:42:32.098Z,82.40
2019-03-05T08:44:59.589Z,81.14
2019-03-05T08:47:27.098Z,79.61
2019-03-05T08:49:55.689Z,78.13
2019-03-05T08:52:23.155Z,78.17
2019-03-05T08:54:50.669Z,78.54
2019-03-05T08:57:18.096Z,77.00
2019-03-05T08:59:45.512Z,75.65
2019-03-05T09:02:12.989Z,74.88
2019-03-05T09:04:40.497Z,75.68
2019-03-05T09:07:07.996Z,78.87
2019-03-05T09:09:35.421Z,72.78
2019-03-05T09:12:02.913Z,73.50
2019-03-05T09:14:30.339Z,73.01
2019-03-05T09:16:57.849Z,73.03
2019-03-05T09:19:25.329Z,76.39
2019-03-05T09:21:52.893Z,73.67
2019-03-05T09:24:20.320Z,71.06
2019-03-05T09:26:51.443Z,71.17
2019-03-05T09:29:17.189Z,69.31
2019-03-05T09:31:44.613Z,70.13
2019-03-05T09:34:12.157Z,69.22
2019-03-05T09:36:50.028Z,68.54
2019-03-05T09:39:11.138Z,68.94
2019-03-05T09:41:38.602Z,68.59
2019-03-05T09:44:06.054Z,67.76
2019-03-05T09:46:33.489Z,68.84
2019-03-05T09:49:00.987Z,67.97
2019-03-05T09:51:28.500Z,65.88
2019-03-05T09:53:56.039Z,65.49
2019-03-05T09:56:23.474Z,63.46
2019-03-05T09:58:50.938Z,61.53
2019-03-05T10:01:19.047Z,62.22
2019-03-05T10:03:46.498Z,62.82
2019-03-05T10:06:13.949Z,59.97
2019-03-05T10:08:41.410Z,58.62
2019-03-05T10:11:09.070Z,59.57
2019-03-05T10:13:36.513Z,65.38
2019-03-05T10:16:04.510Z,68.67
2019-03-05T10:18:32.001Z,67.19
2019-03-05T10:20:59.737Z,64.00
2019-03-05T10:23:27.178Z,61.80
2019-03-05T10:25:54.570Z,59.95
2019-03-05T10:28:21.907Z,62.15
2019-03-05T10:30:49.352Z,61.45
2019-03-05T10:33:17.943Z,63.13
2019-03-05T10:35:45.382Z,61.90
2019-03-05T10:38:13.572Z,63.90
2019-03-05T10:40:41.630Z,62.73
2019-03-05T10:43:10.087Z,64.16
2019-03-05T10:45:39.231Z,64.19
2019-03-05T10:48:06.702Z,63.07
2019-03-05T10:50:34.275Z,62.82
2019-03-05T10:53:01.822Z,62.22
2019-03-05T10:55:29.339Z,60.53
2019-03-05T10:57:56.759Z,62.04
2019-03-05T11:00:29.741Z,60.88
2019-03-05T11:02:57.364Z,63.69
2019-03-05T11:05:25.831Z,61.67
2019-03-05T11:07:53.213Z,62.77
2019-03-05T11:10:20.766Z,60.63
2019-03-05T11:12:48.272Z,60.39
2019-03-05T11:15:19.164Z,62.05
2019-03-05T11:17:46.546Z,60.70
2019-03-05T11:20:13.907Z,59.52
2019-03-05T11:22:41.397Z,59.54
2019-03-05T11:25:10.008Z,58.33
2019-03-05T11:27:37.441Z,57.96
2019-03-05T11:30:06.307Z,57.41
2019-03-05T11:32:33.938Z,56.15
2019-03-05T11:35:01.317Z,54.40
2019-03-05T11:37:28.739Z,50.58
2019-03-05T11:39:56.220Z,51.72
2019-03-05T11:42:23.616Z,50.72
2019-03-05T11:44:58.995Z,51.61
2019-03-05T11:47:20.342Z,55.06
2019-03-05T11:49:47.761Z,50.75
2019-03-05T11:52:15.255Z,49.87
2019-03-05T11:54:42.679Z,49.32
2019-03-05T11:57:10.047Z,49.60
2019-03-05T11:59:37.489Z,48.20
2019-03-05T12:02:05.086Z,49.14
2019-03-05T12:04:32.470Z,47.21
2019-03-05T12:07:01.804Z,48.41
2019-03-05T12:09:29.195Z,51.55
2019-03-05T12:11:56.602Z,48.95
2019-03-05T12:14:23.951Z,49.78
2019-03-05T12:16:51.317Z,45.25
2019-03-05T12:19:18.711Z,48.13
2019-03-05T12:21:46.123Z,47.36
2019-03-05T12:24:13.470Z,49.63
2019-03-05T12:26:40.834Z,45.04
2019-03-05T12:29:08.268Z,45.99
2019-03-05T12:31:35.674Z,46.50
2019-03-05T12:34:03.237Z,46.34
2019-03-05T12:36:30.635Z,44.10
2019-03-05T12:38:58.081Z,43.38
2019-03-05T12:41:25.480Z,38.61
2019-03-05T12:43:52.912Z,42.27
2019-03-05T12:46:20.332Z,40.04
2019-03-05T12:48:47.753Z,40.10
2019-03-05T12:51:15.231Z,40.84
2019-03-05T12:53:42.708Z,37.98
2019-03-05T12:56:10.175Z,37.84
2019-03-05T12:58:37.578Z,37.12
2019-03-05T13:01:06.698Z,36.65
2019-03-05T13:03:34.139Z,37.45
2019-03-05T13:06:01.522Z,38.47
2019-03-05T13:08:28.921Z,33.26
2019-03-05T13:10:56.488Z,35.09
2019-03-05T13:13:24.032Z,38.02
2019-03-05T13:15:52.867Z,38.39
2019-03-05T13:18:20.452Z,39.63
2019-03-05T13:20:47.828Z,39.47
2019-03-05T13:23:15.201Z,36.50
2019-03-05T13:25:42.562Z,36.72
2019-03-05T13:28:09.993Z,36.88
2019-03-05T13:30:40.167Z,34.90
2019-03-05T13:33:06.878Z,38.73
2019-03-05T13:35:34.233Z,40.79
2019-03-05T13:38:03.392Z,39.54
2019-03-05T13:40:34.032Z,41.83
2019-03-05T13:43:00.285Z,41.42
2019-03-05T13:45:27.805Z,39.95
2019-03-05T13:48:08.227Z,39.14
2019-03-05T13:50:54.190Z,36.99
2019-03-05T13:54:12.681Z,37.28
2019-03-05T13:57:23.741Z,35.75
2019-03-05T13:59:51.281Z,33.92
2019-03-05T14:02:27.968Z,37.31
2019-03-05T14:05:43.029Z,34.79
2019-03-05T14:08:46.118Z,33.35
2019-03-05T14:11:13.915Z,34.07
2019-03-05T14:13:41.314Z,32.93
2019-03-05T14:16:10.431Z,36.14
2019-03-05T14:18:38.152Z,38.79
2019-03-05T14:21:05.854Z,41.74
2019-03-05T14:23:33.292Z,42.58
2019-03-05T14:26:00.703Z,41.95
2019-03-05T14:28:28.190Z,42.34
2019-03-05T14:30:55.615Z,45.58
2019-03-05T14:33:23.107Z,48.48
2019-03-05T14:35:50.543Z,48.51
2019-03-05T14:38:18.523Z,51.18
2019-03-05T14:40:46.176Z,50.47
2019-03-05T14:43:13.603Z,52.06
2019-03-05T14:45:41.193Z,52.28
2019-03-05T14:48:08.935Z,52.58
2019-03-05T14:50:36.582Z,52.79
2019-03-05T14:53:04.605Z,53.88
2019-03-05T14:55:32.134Z,53.25
2019-03-05T14:57:59.725Z,51.99
2019-03-05T15:00:27.271Z,51.81
2019-03-05T15:02:54.936Z,52.92
2019-03-05T15:05:22.537Z,52.21
2019-03-05T15:07:50.089Z,51.20
2019-03-05T15:10:17.804Z,52.63
2019-03-05T15:12:45.509Z,52.11
2019-03-05T15:15:27.087Z,52.56
2019-03-05T15:17:54.952Z,52.38
2019-03-05T15:20:22.406Z,52.14
2019-03-05T15:22:49.886Z,51.81
2019-03-05T15:25:17.739Z,52.78
2019-03-05T15:27:45.342Z,51.18
2019-03-05T15:30:14.990Z,51.81
2019-03-05T15:32:42.786Z,52.37
2019-03-05T15:35:10.691Z,51.69
2019-03-05T15:37:39.715Z,51.64
2019-03-05T15:40:09.176Z,51.86
2019-03-05T15:42:36.928Z,53.00
2019-03-05T15:45:05.700Z,51.82
2019-03-05T15:47:33.542Z,54.14
2019-03-05T15:50:01.364Z,54.53
2019-03-05T15:52:29.227Z,54.35
2019-03-05T15:54:56.942Z,56.13
2019-03-05T15:57:26.376Z,53.53
2019-03-05T15:59:54.446Z,57.59
2019-03-05T16:02:22.249Z,57.92
2019-03-05T16:04:50.072Z,55.67
2019-03-05T16:07:17.988Z,55.54
2019-03-05T16:09:45.797Z,54.04
2019-03-05T16:12:14.156Z,53.58
2019-03-05T16:14:42.200Z,58.92
2019-03-05T16:17:09.996Z,61.78
2019-03-05T16:19:37.984Z,59.81
2019-03-05T16:22:05.762Z,59.95
2019-03-05T16:24:33.958Z,58.55
2019-03-05T16:27:03.189Z,53.20
2019-03-05T16:29:30.955Z,55.85
2019-03-05T16:32:15.023Z,61.43
2019-03-05T16:34:58.392Z,56.64
2019-03-05T16:37:48.237Z,55.36
2019-03-05T16:40:41.015Z,53.51
2019-03-05T16:43:16.949Z,57.91
2019-03-05T16:46:13.294Z,57.42
2019-03-05T16:49:09.550Z,55.45
2019-03-05T16:52:05.843Z,56.93
2019-03-05T16:54:47.096Z,59.61
2019-03-05T16:57:33.254Z,56.54
2019-03-05T17:00:17.377Z,59.59
2019-03-05T17:03:07.628Z,59.13
2019-03-05T17:06:07.214Z,58.67
2019-03-05T17:08:54.654Z,59.35
2019-03-05T17:11:50.984Z,58.56
2019-03-05T17:14:18.949Z,61.77
2019-03-05T17:16:46.715Z,59.64
2019-03-05T17:19:16.074Z,58.87
2019-03-05T17:21:44.223Z,57.64
2019-03-05T17:24:12.256Z,58.77
2019-03-05T17:26:40.294Z,60.31
2019-03-05T17:29:08.258Z,54.82
2019-03-05T17:31:36.122Z,56.16
2019-03-05T17:34:04.062Z,58.87
2019-03-05T17:36:32.047Z,57.70
2019-03-05T17:39:00.099Z,59.04
2019-03-05T17:41:28.092Z,55.29
2019-03-05T17:43:56.659Z,57.69
2019-03-05T17:46:24.655Z,58.79
2019-03-05T17:48:52.707Z,59.21
2019-03-05T17:51:20.550Z,60.24
2019-03-05T17:53:48.601Z,56.74
2019-03-05T17:56:18.755Z,54.83
2019-03-05T17:58:46.762Z,56.86
2019-03-05T18:01:16.236Z,59.35
2019-03-05T18:03:44.657Z,56.86
2019-03-05T18:06:12.740Z,58.67
2019-03-05T18:08:41.420Z,60.29
2019-03-05T18:11:09.450Z,61.57
2019-03-05T18:13:37.407Z,63.10
2019-03-05T18:16:05.369Z,57.48
2019-03-05T18:18:33.405Z,57.62
2019-03-05T18:21:03.383Z,62.30
2019-03-05T18:23:31.215Z,57.99
2019-03-05T18:26:00.547Z,57.42
2019-03-05T18:28:28.904Z,55.85
2019-03-05T18:30:56.927Z,51.24
2019-03-05T18:33:24.898Z,49.24
2019-03-05T18:35:52.884Z,48.53
2019-03-05T18:38:20.852Z,49.69
2019-03-05T18:40:48.962Z,49.43
2019-03-05T18:43:16.984Z,47.42
2019-03-05T18:45:45.582Z,53.28
2019-03-05T18:48:14.817Z,56.51
2019-03-05T18:50:42.766Z,53.72
2019-03-05T18:53:10.877Z,54.19
2019-03-05T18:55:38.936Z,55.99
2019-03-05T18:58:06.912Z,58.34
2019-03-05T19:00:34.997Z,59.48
2019-03-05T19:03:03.884Z,60.59
2019-03-05T19:05:31.948Z,60.25
2019-03-05T19:08:00.152Z,58.95
2019-03-05T19:10:28.625Z,59.79
2019-03-05T19:12:58.692Z,59.10
2019-03-05T19:15:26.645Z,59.27
2019-03-05T19:17:54.628Z,60.48
2019-03-05T19:20:23.402Z,59.20
2019-03-05T19:22:51.879Z,58.76
2019-03-05T19:25:24.781Z,59.35
2019-03-05T19:27:55.605Z,60.09
2019-03-05T19:30:26.737Z,60.56
2019-03-05T19:32:56.891Z,56.74
2019-03-05T19:35:24.915Z,56.70
2019-03-05T19:37:53.014Z,59.18
2019-03-05T19:40:26.629Z,59.40
2019-03-05T19:42:54.751Z,60.90
2019-03-05T19:45:23.094Z,61.66
2019-03-05T19:47:51.359Z,59.06
2019-03-05T19:50:19.423Z,58.10
2019-03-05T19:52:48.066Z,58.61
2019-03-05T19:55:19.922Z,59.61
2019-03-05T19:57:47.918Z,59.40
2019-03-05T20:00:20.482Z,59.69
2019-03-05T20:02:48.577Z,60.41
2019-03-05T20:05:20.927Z,60.45
2019-03-05T20:07:49.108Z,61.44
2019-03-05T20:10:18.970Z,61.61
2019-03-05T20:12:47.031Z,59.75
2019-03-05T20:15:17.226Z,59.46
2019-03-05T20:17:48.411Z,62.47
2019-03-05T20:20:17.084Z,64.37
2019-03-05T20:22:46.026Z,65.90
2019-03-05T20:25:16.247Z,66.19
2019-03-05T20:27:50.948Z,67.20
2019-03-05T20:30:25.659Z,66.91
2019-03-05T20:32:59.917Z,66.56
2019-03-05T20:35:29.978Z,66.55
2019-03-05T20:38:02.646Z,64.87
2019-03-05T20:40:31.202Z,65.21
2019-03-05T20:42:59.432Z,67.28
2019-03-05T20:45:28.723Z,63.26
2019-03-05T20:47:59.854Z,65.17
2019-03-05T20:50:29.645Z,67.91
2019-03-05T20:52:59.058Z,67.48
2019-03-05T20:55:28.844Z,68.67
2019-03-05T20:58:04.931Z,67.82
2019-03-05T21:00:34.648Z,65.45
2019-03-05T21:03:06.137Z,65.43
2019-03-05T21:05:37.619Z,65.38
2019-03-05T21:08:09.005Z,66.79
2019-03-05T21:10:46.060Z,65.13
2019-03-05T21:13:16.826Z,65.79
2019-03-05T21:15:44.895Z,65.36
2019-03-05T21:18:13.031Z,65.40
2019-03-05T21:20:41.452Z,66.84
2019-03-05T21:23:10.850Z,64.47
2019-03-05T21:25:39.054Z,61.85
2019-03-05T21:28:11.266Z,63.01
2019-03-05T21:30:39.291Z,64.29
2019-03-05T21:33:07.419Z,66.36
2019-03-05T21:35:35.435Z,66.55
2019-03-05T21:38:03.496Z,68.35
2019-03-05T21:40:31.621Z,66.89
2019-03-05T21:42:59.750Z,66.17
2019-03-05T21:45:35.136Z,67.72
2019-03-05T21:48:04.345Z,69.08
2019-03-05T21:50:32.304Z,69.56
2019-03-05T21:53:00.297Z,68.22
2019-03-05T21:55:28.288Z,67.70
2019-03-05T21:57:56.176Z,68.55
2019-03-05T22:00:25.960Z,68.58
2019-03-05T22:02:53.624Z,68.15
2019-03-05T22:05:21.090Z,67.81
2019-03-05T22:07:48.786Z,67.74
2019-03-05T22:10:17.753Z,66.98
2019-03-05T22:12:45.315Z,67.64
2019-03-05T22:15:14.645Z,67.31
2019-03-05T22:17:42.072Z,67.25
2019-03-05T22:20:11.152Z,67.85
2019-03-05T22:22:38.606Z,67.84
2019-03-05T22:25:06.438Z,69.18
2019-03-05T22:27:33.890Z,69.71
2019-03-05T22:30:01.396Z,69.86
2019-03-05T22:32:28.830Z,70.54
2019-03-05T22:34:56.263Z,71.30
2019-03-05T22:37:23.732Z,71.99
2019-03-05T22:39:51.794Z,72.09
2019-03-05T22:42:19.229Z,72.38
2019-03-05T22:44:46.665Z,72.52
2019-03-05T22:47:14.109Z,72.69
2019-03-05T22:49:41.554Z,73.70
2019-03-05T22:52:08.926Z,73.52
2019-03-05T22:54:36.488Z,74.20
2019-03-05T22:57:04.018Z,73.80
2019-03-05T22:59:31.385Z,73.86
2019-03-05T23:01:58.887Z,74.36
2019-03-05T23:04:35.928Z,74.29
2019-03-05T23:07:04.093Z,74.31
2019-03-05T23:09:31.640Z,74.45
2019-03-05T23:11:59.171Z,74.03
2019-03-05T23:14:26.614Z,74.26
2019-03-05T23:16:54.087Z,73.47
2019-03-05T23:19:21.592Z,73.65
2019-03-05T23:21:49.074Z,73.76
2019-03-05T23:24:16.898Z,74.00
2019-03-05T23:26:44.288Z,74.12
2019-03-05T23:29:12.811Z,73.81
2019-03-05T23:31:40.758Z,73.85
2019-03-05T23:34:08.147Z,74.08
2019-03-05T23:36:35.691Z,74.29
2019-03-05T23:39:04.652Z,74.34
2019-03-05T23:41:32.052Z,74.00
2019-03-05T23:43:59.703Z,73.77
2019-03-05T23:46:27.211Z,73.82
2019-03-05T23:48:54.613Z,74.02
2019-03-05T23:51:22.018Z,74.23
2019-03-05T23:53:49.432Z,73.80
2019-03-05T23:56:16.895Z,74.16
2019-03-05T23:58:44.339Z,74.67
